Avon, Ohio
Current Conditions -  °F | °C
As of 1:16 AM on Friday 19 Dec 2014 (Local Time) from KCLE Reporting Station
Light Snow Light Snow  
Wind Chill: 19°   Ceiling: 700
Heat Index: 29°   Visibility: 5mi
Dew Point: 27°   Wind: 12mph
Humidity: 92%   Direction: 250°WSW
Pressure: 30.18"   Gusts: NA
Location:  41.47°N, 82.02°W
Report Text: KCLE 190616Z 25010KT 5SM -FZDZSN BR OVC007 M02/M03 A3018 RMK AO2 FZDZB16 P0000 I1000 T10171028
Loading
Personal Weather Stations






























Interactive Weather Map New forecast layout! Learn more

10-Day Weather Forecast

Advertisements
Track Severe Weather on mobile